Login to view products. 
Tuesday, February 28, 2017 (00:58 UTC)
Dubai International Airport
Last Updated: 28-02-2017 (00:56Z)
Wind Dir/Speed: ESE at 1 KT
Temperature: 16.2 °C
Rel. Humidity: 73 %
Pressure: 1018.5 hPa
Visibility: 7000 m
  • METAR OMDB 280100Z VRB02KT 7000 NSC 16/12 Q1018 BECMG 4000 HZ
  • TAF OMDB 272256Z 2800/0106 15005KT 8000 NSC PROB30 2801/2805 4000 HZ BECMG 2807/2809 33010KT BECMG 2817/2819 16005KT PROB30 0101/0105 3000 BR=